Time;durP1;ratioP1;P1;durP2;ratioP2;P2;SDS_P1;SDS_P2;PMS_P1;PMS_P2;Temp;Humidity;BMP_temperature;BMP_pressure;BME280_temperature;BME280_humidity;BME280_pressure;Samples;Min_cycle;Max_cycle;Signal;HPM_P1;HPM_P2
2021/08/29 00:01:01;;;;;;;31.05;8.40;;;;;;;;;;5093913;28;20023;-71
2021/08/29 00:03:27;;;;;;;25.58;9.88;;;;;;;;;;5092230;28;20032;-70
2021/08/29 00:05:54;;;;;;;24.83;8.60;;;;;;;;;;5112030;28;20409;-71
2021/08/29 00:08:20;;;;;;;23.02;7.72;;;;;;;;;;5110252;28;20039;-71
2021/08/29 00:10:46;;;;;;;15.73;7.18;;;;;;;;;;5112748;28;20031;-72
2021/08/29 00:13:12;;;;;;;34.80;9.25;;;;;;;;;;5110820;28;20030;-72
2021/08/29 00:15:38;;;;;;;27.98;9.38;;;;;;;;;;5112660;28;20575;-70
2021/08/29 00:18:05;;;;;;;31.20;9.63;;;;;;;;;;5111854;28;20542;-68
2021/08/29 00:20:31;;;;;;;15.02;6.35;;;;;;;;;;5112682;28;20031;-72
2021/08/29 00:22:57;;;;;;;13.00;5.75;;;;;;;;;;5109190;28;20028;-72
2021/08/29 00:25:23;;;;;;;15.23;5.95;;;;;;;;;;5091955;28;20545;-70
2021/08/29 00:27:49;;;;;;;16.95;5.03;;;;;;;;;;5112984;28;20100;-70
2021/08/29 00:30:15;;;;;;;12.05;4.93;;;;;;;;;;5110649;28;20039;-72
2021/08/29 00:32:42;;;;;;;14.48;4.18;;;;;;;;;;5110859;28;20053;-72
2021/08/29 00:35:08;;;;;;;12.27;4.65;;;;;;;;;;5112267;28;20024;-72
2021/08/29 00:37:34;;;;;;;15.35;4.90;;;;;;;;;;5112367;28;20027;-72
2021/08/29 00:40:00;;;;;;;14.15;4.28;;;;;;;;;;5112178;28;20524;-72
2021/08/29 00:42:27;;;;;;;9.50;3.65;;;;;;;;;;5092300;28;20026;-73
2021/08/29 00:44:53;;;;;;;16.00;4.07;;;;;;;;;;5093291;28;20020;-72
2021/08/29 00:47:19;;;;;;;13.80;4.38;;;;;;;;;;5112055;28;20058;-72
2021/08/29 00:49:45;;;;;;;13.65;4.50;;;;;;;;;;5112016;28;20032;-72
2021/08/29 00:52:11;;;;;;;12.48;5.63;;;;;;;;;;5111046;28;20039;-72
2021/08/29 00:54:38;;;;;;;17.38;6.68;;;;;;;;;;5110587;28;20069;-72
2021/08/29 00:57:09;;;;;;;19.58;5.40;;;;;;;;;;5092535;28;20514;-74
2021/08/29 00:59:38;;;;;;;11.70;4.70;;;;;;;;;;5091515;28;20024;-73
2021/08/29 01:02:10;;;;;;;12.48;5.25;;;;;;;;;;5110264;28;20023;-72
2021/08/29 01:04:39;;;;;;;18.63;6.10;;;;;;;;;;5110811;28;20114;-73
2021/08/29 01:07:09;;;;;;;13.27;5.05;;;;;;;;;;5110797;28;20028;-73
2021/08/29 01:09:37;;;;;;;14.70;5.10;;;;;;;;;;5111489;28;20062;-74
2021/08/29 01:12:03;;;;;;;18.52;6.53;;;;;;;;;;5109396;28;20408;-73
2021/08/29 01:14:30;;;;;;;17.27;5.57;;;;;;;;;;5108437;28;20099;-72
2021/08/29 01:16:57;;;;;;;18.33;6.90;;;;;;;;;;5090765;28;20054;-72
2021/08/29 01:19:32;;;;;;;17.88;5.80;;;;;;;;;;5110427;28;20019;-73
2021/08/29 01:22:00;;;;;;;23.65;6.53;;;;;;;;;;5108469;28;20027;-69
2021/08/29 01:24:26;;;;;;;14.75;6.28;;;;;;;;;;5088413;28;20028;-70
2021/08/29 01:26:52;;;;;;;27.50;6.88;;;;;;;;;;5100594;28;20114;-71
2021/08/29 01:29:20;;;;;;;18.58;6.72;;;;;;;;;;5106927;28;20103;-72
2021/08/29 01:31:46;;;;;;;20.90;7.07;;;;;;;;;;5107868;28;20118;-72
2021/08/29 01:34:13;;;;;;;17.27;6.05;;;;;;;;;;5106226;28;20031;-72
2021/08/29 01:36:41;;;;;;;18.77;6.15;;;;;;;;;;5090062;28;20020;-72
2021/08/29 01:39:07;;;;;;;14.88;6.68;;;;;;;;;;5110221;28;20027;-72
2021/08/29 01:41:34;;;;;;;17.17;6.45;;;;;;;;;;5107707;28;20523;-70
2021/08/29 01:44:00;;;;;;;19.95;7.85;;;;;;;;;;5104241;28;20023;-71
2021/08/29 01:46:26;;;;;;;12.20;5.93;;;;;;;;;;5106891;28;20027;-71
2021/08/29 01:48:52;;;;;;;15.50;6.47;;;;;;;;;;5107077;28;20028;-71
2021/08/29 01:51:19;;;;;;;17.33;6.95;;;;;;;;;;5107063;28;20035;-70
2021/08/29 01:53:46;;;;;;;15.82;6.38;;;;;;;;;;5106755;28;20022;-71
2021/08/29 01:56:12;;;;;;;14.77;6.85;;;;;;;;;;5091113;28;20098;-71
2021/08/29 01:58:38;;;;;;;18.00;5.80;;;;;;;;;;5091454;28;20028;-71
2021/08/29 02:01:11;;;;;;;16.40;6.22;;;;;;;;;;5108715;28;20028;-71
2021/08/29 02:03:37;;;;;;;23.98;6.20;;;;;;;;;;5108755;28;20586;-72
2021/08/29 02:06:07;;;;;;;16.42;5.05;;;;;;;;;;5091102;28;20446;-72
2021/08/29 02:08:36;;;;;;;13.60;5.03;;;;;;;;;;5091797;28;20374;-70
2021/08/29 02:11:02;;;;;;;14.10;5.20;;;;;;;;;;5109610;28;20019;-71
2021/08/29 02:13:29;;;;;;;10.32;4.78;;;;;;;;;;5106811;28;20030;-72
2021/08/29 02:16:15;;;;;;;17.00;4.82;;;;;;;;;;5092065;28;20023;-71
2021/08/29 02:18:42;;;;;;;12.68;4.78;;;;;;;;;;5108471;28;20493;-72
2021/08/29 02:21:09;;;;;;;15.05;4.47;;;;;;;;;;5109822;28;20026;-70
2021/08/29 02:23:35;;;;;;;15.23;5.60;;;;;;;;;;5108939;28;20020;-72
2021/08/29 02:26:01;;;;;;;17.88;5.60;;;;;;;;;;5109655;28;20028;-70
2021/08/29 02:28:28;;;;;;;13.05;4.35;;;;;;;;;;5088613;28;20050;-72
2021/08/29 02:30:54;;;;;;;17.77;4.78;;;;;;;;;;5109341;28;20023;-71
2021/08/29 02:33:21;;;;;;;12.43;5.97;;;;;;;;;;5108860;28;20012;-72
2021/08/29 02:35:47;;;;;;;13.60;4.38;;;;;;;;;;5108467;28;20028;-72
2021/08/29 02:38:14;;;;;;;16.88;6.30;;;;;;;;;;5109667;28;20459;-71
2021/08/29 02:40:44;;;;;;;21.15;6.38;;;;;;;;;;5091767;28;20110;-72
2021/08/29 02:43:10;;;;;;;15.93;5.55;;;;;;;;;;5107749;28;20023;-72
2021/08/29 02:45:37;;;;;;;13.82;4.82;;;;;;;;;;5109795;28;20122;-73
2021/08/29 02:48:03;;;;;;;18.00;6.93;;;;;;;;;;5088698;28;20028;-70
2021/08/29 02:50:30;;;;;;;11.00;5.40;;;;;;;;;;5109713;28;20032;-73
2021/08/29 02:52:56;;;;;;;16.92;6.05;;;;;;;;;;5109948;28;20054;-71
2021/08/29 02:55:23;;;;;;;18.50;6.43;;;;;;;;;;5113282;28;20027;-72
2021/08/29 02:57:51;;;;;;;16.13;6.18;;;;;;;;;;5113543;28;20495;-71
2021/08/29 03:00:17;;;;;;;19.67;6.57;;;;;;;;;;5112033;28;20192;-73
2021/08/29 03:02:43;;;;;;;17.38;6.75;;;;;;;;;;5111966;28;20032;-72
2021/08/29 03:05:10;;;;;;;20.92;5.82;;;;;;;;;;5094980;28;20763;-73
2021/08/29 03:07:36;;;;;;;13.85;5.47;;;;;;;;;;5114207;28;20046;-71
2021/08/29 03:10:03;;;;;;;20.42;5.63;;;;;;;;;;5113539;28;20024;-72
2021/08/29 03:12:30;;;;;;;15.18;4.47;;;;;;;;;;5111833;28;20019;-72
2021/08/29 03:14:56;;;;;;;13.23;5.25;;;;;;;;;;5113316;28;20023;-73
2021/08/29 03:17:22;;;;;;;14.95;5.00;;;;;;;;;;5112860;28;20531;-72
2021/08/29 03:19:50;;;;;;;15.88;5.10;;;;;;;;;;5111037;28;20019;-72
2021/08/29 03:22:16;;;;;;;14.73;5.20;;;;;;;;;;5091815;28;20031;-71
2021/08/29 03:24:43;;;;;;;14.45;5.50;;;;;;;;;;5113454;28;20035;-71
2021/08/29 03:27:09;;;;;;;18.10;5.63;;;;;;;;;;5112171;28;20038;-72
2021/08/29 03:29:35;;;;;;;10.38;4.70;;;;;;;;;;5113496;28;20020;-71
2021/08/29 03:32:01;;;;;;;17.80;5.45;;;;;;;;;;5113333;28;20028;-70
2021/08/29 03:34:28;;;;;;;17.90;6.55;;;;;;;;;;5111700;28;20527;-71
2021/08/29 03:36:54;;;;;;;15.40;5.13;;;;;;;;;;5111754;28;20030;-71
2021/08/29 03:39:20;;;;;;;12.95;5.90;;;;;;;;;;5112432;28;20024;-72
2021/08/29 03:41:46;;;;;;;13.35;4.35;;;;;;;;;;5113204;28;20031;-72
2021/08/29 03:44:13;;;;;;;16.85;5.40;;;;;;;;;;5111595;28;20523;-71
2021/08/29 03:46:40;;;;;;;12.30;4.57;;;;;;;;;;5112519;28;20035;-72
2021/08/29 03:49:06;;;;;;;14.50;4.65;;;;;;;;;;5112866;28;20027;-72
2021/08/29 03:51:34;;;;;;;12.75;4.00;;;;;;;;;;5093443;28;20031;-72
2021/08/29 03:54:01;;;;;;;23.67;5.25;;;;;;;;;;5111519;28;20476;-71
2021/08/29 03:56:27;;;;;;;12.55;4.15;;;;;;;;;;5112003;28;20024;-73
2021/08/29 03:58:54;;;;;;;11.95;4.63;;;;;;;;;;5093602;28;20023;-72
2021/08/29 04:01:20;;;;;;;14.70;3.78;;;;;;;;;;5113263;28;20019;-71
2021/08/29 04:03:46;;;;;;;25.65;4.45;;;;;;;;;;5092382;28;20027;-72
2021/08/29 04:06:13;;;;;;;15.60;5.10;;;;;;;;;;5109675;28;20047;-72
2021/08/29 04:08:40;;;;;;;15.75;4.88;;;;;;;;;;5112766;28;20039;-71
2021/08/29 04:11:08;;;;;;;18.30;4.65;;;;;;;;;;5110167;28;20020;-72
2021/08/29 04:13:36;;;;;;;18.10;4.63;;;;;;;;;;5111199;28;20015;-71
2021/08/29 04:16:03;;;;;;;15.15;4.35;;;;;;;;;;5112054;28;20056;-72
2021/08/29 04:18:32;;;;;;;16.95;4.85;;;;;;;;;;5110048;28;20397;-71
2021/08/29 04:20:58;;;;;;;24.13;4.68;;;;;;;;;;5111348;28;20031;-71
2021/08/29 04:23:24;;;;;;;20.95;5.93;;;;;;;;;;5110633;28;20035;-72
2021/08/29 04:25:50;;;;;;;16.80;4.80;;;;;;;;;;5094152;28;20027;-70
2021/08/29 04:28:16;;;;;;;23.60;5.60;;;;;;;;;;5111761;28;20067;-72
2021/08/29 04:30:43;;;;;;;23.73;5.80;;;;;;;;;;5111382;28;20036;-72
2021/08/29 04:33:09;;;;;;;25.50;5.60;;;;;;;;;;5110305;28;20489;-75
2021/08/29 04:35:35;;;;;;;22.08;6.47;;;;;;;;;;5111594;28;20016;-73
2021/08/29 04:38:01;;;;;;;19.77;5.93;;;;;;;;;;5111566;28;20026;-72
2021/08/29 04:40:27;;;;;;;18.17;5.75;;;;;;;;;;5112018;28;20030;-72
2021/08/29 04:42:53;;;;;;;23.23;5.93;;;;;;;;;;5110800;28;20511;-72
2021/08/29 04:45:19;;;;;;;24.02;6.38;;;;;;;;;;5110459;28;20031;-71
2021/08/29 04:47:45;;;;;;;25.77;6.10;;;;;;;;;;5092008;28;20147;-70
2021/08/29 04:50:11;;;;;;;20.05;6.55;;;;;;;;;;5110463;28;20800;-73
2021/08/29 04:52:37;;;;;;;23.70;5.85;;;;;;;;;;5092608;28;20020;-73
2021/08/29 04:55:04;;;;;;;19.45;5.28;;;;;;;;;;5092469;28;20508;-74
2021/08/29 04:57:30;;;;;;;16.58;5.70;;;;;;;;;;5111795;28;20031;-72
2021/08/29 04:59:56;;;;;;;18.75;5.47;;;;;;;;;;5111621;28;20023;-71
2021/08/29 05:02:22;;;;;;;19.13;5.88;;;;;;;;;;5091931;28;20081;-72
2021/08/29 05:04:48;;;;;;;15.10;4.78;;;;;;;;;;5110465;28;20038;-71
2021/08/29 05:07:14;;;;;;;21.90;5.55;;;;;;;;;;5111836;28;20027;-72
2021/08/29 05:09:40;;;;;;;14.05;4.90;;;;;;;;;;5092201;28;20058;-73
2021/08/29 05:12:06;;;;;;;22.50;5.07;;;;;;;;;;5110575;28;20023;-72
2021/08/29 05:14:32;;;;;;;16.90;4.97;;;;;;;;;;5109941;28;20023;-72
2021/08/29 05:16:58;;;;;;;21.00;5.13;;;;;;;;;;5091805;28;20089;-70
2021/08/29 05:19:24;;;;;;;26.30;5.15;;;;;;;;;;5110602;28;20080;-71
2021/08/29 05:21:50;;;;;;;17.98;4.45;;;;;;;;;;5092393;28;20032;-73
2021/08/29 05:24:16;;;;;;;16.15;4.72;;;;;;;;;;5109105;28;20039;-74
2021/08/29 05:26:42;;;;;;;16.40;4.75;;;;;;;;;;5110282;28;20093;-73
2021/08/29 05:29:08;;;;;;;16.17;4.68;;;;;;;;;;5110646;28;20031;-70
2021/08/29 05:31:34;;;;;;;16.27;5.78;;;;;;;;;;5110359;28;20032;-73
2021/08/29 05:34:00;;;;;;;19.73;4.65;;;;;;;;;;5107168;28;20019;-75
2021/08/29 05:36:26;;;;;;;24.77;5.35;;;;;;;;;;5111135;28;20107;-73
2021/08/29 05:38:53;;;;;;;23.10;4.93;;;;;;;;;;5111078;28;20115;-74
2021/08/29 05:41:19;;;;;;;13.35;3.88;;;;;;;;;;5110117;28;20028;-75
2021/08/29 05:43:45;;;;;;;29.70;5.35;;;;;;;;;;5109833;28;20030;-73
2021/08/29 05:46:11;;;;;;;13.27;3.63;;;;;;;;;;5110541;28;20027;-75
2021/08/29 05:48:37;;;;;;;24.02;5.70;;;;;;;;;;5110487;28;20027;-75
2021/08/29 05:51:03;;;;;;;15.88;3.95;;;;;;;;;;5109025;28;20216;-75
2021/08/29 05:53:29;;;;;;;18.15;4.55;;;;;;;;;;5107449;28;20576;-74
2021/08/29 05:55:56;;;;;;;13.85;4.00;;;;;;;;;;5090716;28;20035;-76
2021/08/29 05:58:22;;;;;;;13.25;3.30;;;;;;;;;;5090713;28;20039;-76
2021/08/29 06:00:48;;;;;;;20.77;4.93;;;;;;;;;;5109086;28;20026;-74
2021/08/29 06:03:14;;;;;;;14.70;4.43;;;;;;;;;;5107948;28;20027;-75
2021/08/29 06:05:40;;;;;;;12.45;3.90;;;;;;;;;;5109679;28;20023;-75
2021/08/29 06:08:06;;;;;;;17.25;3.72;;;;;;;;;;5108749;28;20028;-73
2021/08/29 06:10:32;;;;;;;15.80;4.60;;;;;;;;;;5092321;28;20519;-74
2021/08/29 06:12:58;;;;;;;21.90;4.45;;;;;;;;;;5107121;27;20055;-75
2021/08/29 06:15:24;;;;;;;14.65;4.53;;;;;;;;;;5091010;28;20032;-74
2021/08/29 06:17:50;;;;;;;13.43;3.17;;;;;;;;;;5110165;28;20020;-73
2021/08/29 06:20:16;;;;;;;20.65;4.07;;;;;;;;;;5108270;28;20055;-74
2021/08/29 06:22:42;;;;;;;11.10;3.53;;;;;;;;;;5106413;28;20023;-73
2021/08/29 06:25:08;;;;;;;17.05;4.95;;;;;;;;;;5109728;28;20020;-75
2021/08/29 06:27:35;;;;;;;18.35;4.03;;;;;;;;;;5110121;28;20040;-73
2021/08/29 06:30:01;;;;;;;15.75;4.20;;;;;;;;;;5109938;28;20511;-76
2021/08/29 06:32:27;;;;;;;18.77;6.00;;;;;;;;;;5108169;28;20050;-74
2021/08/29 06:34:53;;;;;;;14.45;3.97;;;;;;;;;;5109677;28;20057;-73
2021/08/29 06:37:19;;;;;;;14.80;4.55;;;;;;;;;;5109170;28;20030;-72
2021/08/29 06:39:45;;;;;;;14.07;3.97;;;;;;;;;;5090734;28;20019;-75
2021/08/29 06:42:11;;;;;;;13.45;4.65;;;;;;;;;;5109111;28;20024;-72
2021/08/29 06:44:37;;;;;;;12.95;3.55;;;;;;;;;;5108722;28;20024;-74
2021/08/29 06:47:03;;;;;;;15.48;3.58;;;;;;;;;;5109582;28;20072;-72
2021/08/29 06:49:29;;;;;;;11.73;3.78;;;;;;;;;;5109693;28;20577;-72
2021/08/29 06:51:55;;;;;;;14.05;4.30;;;;;;;;;;5108853;28;20034;-72
2021/08/29 06:54:21;;;;;;;13.73;3.67;;;;;;;;;;5090331;28;20023;-73
2021/08/29 06:56:47;;;;;;;13.77;4.28;;;;;;;;;;5109281;28;20020;-72
2021/08/29 06:59:13;;;;;;;10.73;3.65;;;;;;;;;;5109297;28;20024;-72
2021/08/29 07:01:39;;;;;;;14.65;3.53;;;;;;;;;;5109737;28;20016;-72
2021/08/29 07:04:05;;;;;;;20.55;4.90;;;;;;;;;;5108621;28;20034;-71
2021/08/29 07:06:31;;;;;;;17.40;4.38;;;;;;;;;;5109919;28;20031;-72
2021/08/29 07:08:57;;;;;;;17.20;3.88;;;;;;;;;;5109766;28;20036;-72
2021/08/29 07:11:23;;;;;;;20.70;4.70;;;;;;;;;;5108965;28;20028;-72
2021/08/29 07:13:49;;;;;;;30.48;6.78;;;;;;;;;;5089743;28;20035;-74
2021/08/29 07:16:15;;;;;;;22.50;4.18;;;;;;;;;;5090472;28;20047;-73
2021/08/29 07:18:41;;;;;;;12.32;4.63;;;;;;;;;;5107353;28;20153;-73
2021/08/29 07:21:07;;;;;;;20.30;4.22;;;;;;;;;;5108986;28;20027;-72
2021/08/29 07:23:33;;;;;;;13.07;3.78;;;;;;;;;;5108413;28;20084;-72
2021/08/29 07:25:59;;;;;;;16.00;4.35;;;;;;;;;;5108587;28;20030;-72
2021/08/29 07:28:26;;;;;;;17.60;5.82;;;;;;;;;;5108645;28;20027;-72
2021/08/29 07:30:52;;;;;;;15.95;4.40;;;;;;;;;;5090308;28;20031;-72
2021/08/29 07:33:18;;;;;;;15.48;4.78;;;;;;;;;;5106393;28;20497;-72
2021/08/29 07:35:44;;;;;;;15.20;5.30;;;;;;;;;;5108358;28;20024;-72
2021/08/29 07:38:10;;;;;;;14.65;5.22;;;;;;;;;;5090782;28;20485;-71
2021/08/29 07:40:36;;;;;;;14.07;4.13;;;;;;;;;;5111979;28;20026;-71
2021/08/29 07:43:02;;;;;;;12.25;4.03;;;;;;;;;;5109294;28;20035;-69
2021/08/29 07:45:28;;;;;;;13.27;4.00;;;;;;;;;;5112877;28;20031;-71
2021/08/29 07:47:55;;;;;;;12.15;3.83;;;;;;;;;;5094021;28;20024;-70
2021/08/29 07:50:22;;;;;;;13.85;4.10;;;;;;;;;;5112309;28;20054;-70
2021/08/29 07:52:48;;;;;;;15.80;3.65;;;;;;;;;;5111487;28;20022;-70
2021/08/29 07:55:14;;;;;;;12.77;4.05;;;;;;;;;;5093692;28;20039;-70
2021/08/29 07:57:40;;;;;;;11.52;3.50;;;;;;;;;;5112943;28;20016;-71
2021/08/29 08:00:06;;;;;;;12.65;3.35;;;;;;;;;;5093368;28;20405;-71
2021/08/29 08:02:32;;;;;;;14.95;4.25;;;;;;;;;;5110132;28;20027;-71
2021/08/29 08:04:58;;;;;;;13.85;4.38;;;;;;;;;;5110535;28;20073;-70
2021/08/29 08:07:25;;;;;;;14.50;4.00;;;;;;;;;;5111145;28;20019;-70
2021/08/29 08:09:51;;;;;;;20.15;3.67;;;;;;;;;;5110339;28;20107;-70
2021/08/29 08:12:17;;;;;;;11.18;3.60;;;;;;;;;;5108981;28;20031;-71
2021/08/29 08:14:43;;;;;;;12.20;3.95;;;;;;;;;;5093116;28;20039;-70
2021/08/29 08:17:09;;;;;;;14.07;4.18;;;;;;;;;;5111160;28;20020;-72
2021/08/29 08:19:35;;;;;;;14.27;3.90;;;;;;;;;;5111926;28;20031;-71
2021/08/29 08:22:01;;;;;;;20.02;4.35;;;;;;;;;;5112576;28;20040;-73
2021/08/29 08:24:27;;;;;;;15.70;4.28;;;;;;;;;;5092351;28;20034;-74
2021/08/29 08:26:53;;;;;;;16.92;3.78;;;;;;;;;;5092940;28;20027;-72
2021/08/29 08:29:19;;;;;;;11.80;3.40;;;;;;;;;;5094214;28;20049;-72
2021/08/29 08:31:45;;;;;;;13.70;3.75;;;;;;;;;;5112181;27;20084;-71
2021/08/29 08:34:11;;;;;;;14.75;4.00;;;;;;;;;;5109735;28;20041;-71
2021/08/29 08:36:37;;;;;;;13.65;4.10;;;;;;;;;;5105473;27;20019;-70
2021/08/29 08:39:03;;;;;;;15.68;4.47;;;;;;;;;;5098765;28;20099;-71
2021/08/29 08:41:30;;;;;;;14.23;4.30;;;;;;;;;;5111698;28;20035;-71
2021/08/29 08:43:56;;;;;;;12.25;4.13;;;;;;;;;;5110906;28;20020;-71
2021/08/29 08:46:22;;;;;;;16.92;3.80;;;;;;;;;;5110745;28;20039;-70
2021/08/29 08:48:50;;;;;;;14.60;3.58;;;;;;;;;;5110847;28;20027;-72
2021/08/29 08:51:26;;;;;;;14.88;4.03;;;;;;;;;;5107719;28;20032;-72
2021/08/29 08:53:53;;;;;;;12.85;3.65;;;;;;;;;;5091386;28;20493;-72
2021/08/29 08:56:20;;;;;;;13.98;4.00;;;;;;;;;;5091987;28;20389;-71
2021/08/29 08:58:46;;;;;;;14.07;3.40;;;;;;;;;;5111023;28;20096;-70
2021/08/29 09:01:13;;;;;;;11.52;3.40;;;;;;;;;;5092047;28;20031;-69
2021/08/29 09:03:39;;;;;;;15.52;3.75;;;;;;;;;;5110652;28;20103;-70
2021/08/29 09:06:06;;;;;;;14.32;3.97;;;;;;;;;;5108796;28;20154;-69
2021/08/29 09:08:33;;;;;;;11.80;3.90;;;;;;;;;;5111033;28;20028;-70
2021/08/29 09:11:00;;;;;;;11.85;3.85;;;;;;;;;;5092092;28;20024;-71
2021/08/29 09:13:26;;;;;;;17.42;4.40;;;;;;;;;;5089324;27;20071;-72
2021/08/29 09:16:15;;;;;;;15.65;5.03;;;;;;;;;;5109891;28;20034;-70
2021/08/29 09:18:51;;;;;;;17.50;5.05;;;;;;;;;;5109442;28;20170;-71
2021/08/29 09:21:19;;;;;;;19.88;4.22;;;;;;;;;;5107002;28;20038;-70
2021/08/29 09:23:45;;;;;;;13.05;3.78;;;;;;;;;;5091301;28;20973;-70
2021/08/29 09:26:11;;;;;;;15.75;3.50;;;;;;;;;;5110391;28;20051;-70
2021/08/29 09:28:39;;;;;;;13.05;3.45;;;;;;;;;;5090579;28;20092;-70
2021/08/29 09:31:05;;;;;;;15.20;3.67;;;;;;;;;;5110590;28;20540;-70
2021/08/29 09:33:34;;;;;;;10.85;3.35;;;;;;;;;;5108696;28;20026;-70
2021/08/29 09:36:00;;;;;;;14.73;3.88;;;;;;;;;;5107713;28;20047;-70
2021/08/29 09:38:26;;;;;;;14.65;3.00;;;;;;;;;;5107733;28;20107;-69
2021/08/29 09:40:54;;;;;;;12.63;3.88;;;;;;;;;;5109338;28;20473;-70
2021/08/29 09:43:34;;;;;;;11.45;3.70;;;;;;;;;;5108267;28;20027;-70
2021/08/29 09:46:05;;;;;;;17.20;3.45;;;;;;;;;;5109349;28;20030;-70
2021/08/29 09:48:31;;;;;;;15.68;4.25;;;;;;;;;;5109618;28;20057;-70
2021/08/29 09:50:58;;;;;;;9.35;3.58;;;;;;;;;;5109696;28;20039;-70
2021/08/29 09:53:24;;;;;;;16.83;4.53;;;;;;;;;;5089589;28;20026;-69
2021/08/29 09:55:50;;;;;;;11.20;2.83;;;;;;;;;;5108257;28;20024;-70
2021/08/29 09:58:23;;;;;;;10.85;2.97;;;;;;;;;;5109493;28;20023;-69
2021/08/29 10:01:01;;;;;;;12.52;3.70;;;;;;;;;;5105495;28;20052;-71
2021/08/29 10:03:28;;;;;;;15.52;3.65;;;;;;;;;;5107393;28;20024;-69
2021/08/29 10:06:15;;;;;;;12.63;3.30;;;;;;;;;;5109700;28;20034;-69
2021/08/29 10:08:41;;;;;;;12.02;3.28;;;;;;;;;;5109708;28;20028;-70
2021/08/29 10:11:08;;;;;;;14.13;3.67;;;;;;;;;;5108844;28;20540;-70
2021/08/29 10:13:35;;;;;;;9.40;3.25;;;;;;;;;;5108412;28;20016;-70
2021/08/29 10:16:02;;;;;;;17.30;3.92;;;;;;;;;;5109861;28;20027;-71
2021/08/29 10:18:28;;;;;;;19.38;4.45;;;;;;;;;;5106975;28;20054;-69
2021/08/29 10:20:54;;;;;;;13.23;3.08;;;;;;;;;;5110614;28;20024;-70
2021/08/29 10:23:20;;;;;;;14.93;4.05;;;;;;;;;;5107347;28;20123;-69
2021/08/29 10:25:48;;;;;;;9.55;3.45;;;;;;;;;;5108812;28;20031;-72
2021/08/29 10:28:15;;;;;;;17.58;3.88;;;;;;;;;;5108516;28;20023;-69
2021/08/29 10:30:41;;;;;;;15.98;4.32;;;;;;;;;;5107690;28;20028;-69
2021/08/29 10:33:09;;;;;;;15.52;3.85;;;;;;;;;;5104153;28;20032;-69
2021/08/29 10:35:35;;;;;;;14.65;4.20;;;;;;;;;;5102695;28;20019;-69
2021/08/29 10:38:01;;;;;;;12.35;3.65;;;;;;;;;;5106894;28;20020;-71
2021/08/29 10:40:29;;;;;;;15.73;4.38;;;;;;;;;;5106133;28;20060;-70
2021/08/29 10:42:57;;;;;;;14.70;3.67;;;;;;;;;;5103965;28;20016;-69
2021/08/29 10:45:23;;;;;;;20.02;4.63;;;;;;;;;;5105208;28;20023;-70
2021/08/29 10:47:50;;;;;;;14.38;4.18;;;;;;;;;;5106436;28;20008;-69
2021/08/29 10:50:17;;;;;;;20.05;3.75;;;;;;;;;;5108166;28;20044;-69
2021/08/29 10:52:43;;;;;;;9.52;3.53;;;;;;;;;;5085996;28;20703;-70
2021/08/29 10:55:11;;;;;;;12.68;3.38;;;;;;;;;;5101979;28;20034;-69
2021/08/29 10:57:38;;;;;;;13.52;4.50;;;;;;;;;;5103163;28;20051;-70
2021/08/29 11:00:23;;;;;;;13.68;4.50;;;;;;;;;;5105411;28;20028;-68
2021/08/29 11:02:50;;;;;;;16.45;4.07;;;;;;;;;;5102221;28;20076;-69
2021/08/29 11:05:17;;;;;;;11.23;3.75;;;;;;;;;;5106074;28;20471;-70
2021/08/29 11:07:47;;;;;;;12.55;4.10;;;;;;;;;;5084259;28;20126;-70
2021/08/29 11:10:34;;;;;;;19.85;3.70;;;;;;;;;;5101888;28;20104;-70
2021/08/29 11:13:00;;;;;;;20.60;5.50;;;;;;;;;;5099201;28;20038;-71
2021/08/29 11:15:38;;;;;;;26.63;7.40;;;;;;;;;;5108455;28;20022;-70
2021/08/29 11:18:05;;;;;;;23.88;7.40;;;;;;;;;;5106845;28;20051;-70
2021/08/29 11:20:33;;;;;;;23.70;4.50;;;;;;;;;;5110048;28;20024;-70
2021/08/29 11:22:59;;;;;;;17.75;4.57;;;;;;;;;;5086981;28;20020;-70
2021/08/29 11:25:26;;;;;;;17.45;3.55;;;;;;;;;;5109157;28;20022;-71
2021/08/29 11:27:52;;;;;;;15.60;3.75;;;;;;;;;;5109587;28;20106;-69
2021/08/29 11:30:19;;;;;;;17.38;4.60;;;;;;;;;;5110060;28;20037;-69
2021/08/29 11:32:46;;;;;;;18.17;3.90;;;;;;;;;;5106134;28;20016;-69
2021/08/29 11:35:12;;;;;;;18.55;4.13;;;;;;;;;;5110179;27;20027;-69
2021/08/29 11:37:38;;;;;;;15.50;3.92;;;;;;;;;;5108742;27;20031;-69
2021/08/29 11:40:06;;;;;;;13.52;3.85;;;;;;;;;;5106852;28;20020;-69
2021/08/29 11:42:33;;;;;;;20.90;3.28;;;;;;;;;;5106131;28;20067;-69
2021/08/29 11:45:00;;;;;;;20.13;4.22;;;;;;;;;;5108066;28;20032;-69
2021/08/29 11:47:36;;;;;;;15.05;3.58;;;;;;;;;;5105444;28;20542;-68
2021/08/29 11:50:04;;;;;;;16.23;4.18;;;;;;;;;;5109113;28;20032;-71
2021/08/29 11:52:30;;;;;;;16.40;4.18;;;;;;;;;;5086520;28;20133;-70
2021/08/29 11:55:07;;;;;;;22.00;4.45;;;;;;;;;;5087877;28;20058;-69
2021/08/29 11:57:45;;;;;;;22.00;4.10;;;;;;;;;;5106502;27;20024;-69
2021/08/29 12:00:11;;;;;;;26.88;4.45;;;;;;;;;;5110801;28;20032;-70
2021/08/29 12:02:41;;;;;;;17.88;3.60;;;;;;;;;;5110360;28;20134;-69
2021/08/29 12:05:08;;;;;;;18.02;3.90;;;;;;;;;;5108443;28;20019;-68
2021/08/29 12:07:37;;;;;;;19.90;4.65;;;;;;;;;;5111460;28;20042;-69
2021/08/29 12:10:03;;;;;;;21.77;3.40;;;;;;;;;;5111435;28;20035;-70
2021/08/29 12:12:30;;;;;;;16.83;4.32;;;;;;;;;;5105909;28;20015;-71
2021/08/29 12:14:57;;;;;;;19.70;4.13;;;;;;;;;;5110474;28;20044;-68
2021/08/29 12:17:25;;;;;;;16.27;3.70;;;;;;;;;;5106616;28;20666;-70
2021/08/29 12:19:51;;;;;;;25.33;5.22;;;;;;;;;;5110477;28;20035;-71
2021/08/29 12:22:18;;;;;;;13.75;5.07;;;;;;;;;;5089771;28;20039;-69
2021/08/29 12:24:44;;;;;;;19.17;3.55;;;;;;;;;;5090967;28;20114;-70
2021/08/29 12:27:14;;;;;;;16.80;3.22;;;;;;;;;;5111821;28;20076;-69
2021/08/29 12:29:53;;;;;;;12.63;3.22;;;;;;;;;;5109567;28;20028;-71
2021/08/29 12:32:23;;;;;;;12.73;3.15;;;;;;;;;;5108873;28;20051;-73
2021/08/29 12:34:54;;;;;;;14.60;3.40;;;;;;;;;;5091993;28;20027;-71
2021/08/29 12:37:20;;;;;;;15.18;4.05;;;;;;;;;;5105515;28;20020;-72
2021/08/29 12:40:00;;;;;;;18.27;4.68;;;;;;;;;;5104795;28;20050;-70
2021/08/29 12:42:27;;;;;;;15.88;4.10;;;;;;;;;;5090774;28;20055;-72
2021/08/29 12:44:55;;;;;;;19.55;4.40;;;;;;;;;;5110915;28;20046;-74
2021/08/29 12:47:21;;;;;;;16.90;4.15;;;;;;;;;;5092806;28;20159;-72
2021/08/29 12:49:50;;;;;;;19.80;3.72;;;;;;;;;;5112413;28;20043;-71
2021/08/29 12:52:21;;;;;;;16.27;3.92;;;;;;;;;;5109543;28;20559;-77
2021/08/29 12:54:47;;;;;;;17.67;3.75;;;;;;;;;;5109590;28;20077;-72
2021/08/29 12:57:14;;;;;;;18.60;3.88;;;;;;;;;;5110120;28;20027;-72
2021/08/29 12:59:42;;;;;;;18.08;3.90;;;;;;;;;;5092573;28;20503;-72
2021/08/29 13:02:08;;;;;;;21.40;4.22;;;;;;;;;;5111907;28;20028;-72
2021/08/29 13:04:34;;;;;;;14.48;3.65;;;;;;;;;;5111481;28;20058;-72
2021/08/29 13:07:07;;;;;;;11.50;3.25;;;;;;;;;;5111831;28;20035;-73
2021/08/29 13:09:34;;;;;;;16.30;3.28;;;;;;;;;;5093704;28;20413;-72
2021/08/29 13:12:08;;;;;;;17.13;4.63;;;;;;;;;;5108838;28;20561;-71
2021/08/29 13:14:35;;;;;;;16.98;4.00;;;;;;;;;;5110096;28;20027;-72
2021/08/29 13:17:15;;;;;;;12.52;4.30;;;;;;;;;;5089929;28;20076;-71
2021/08/29 13:19:41;;;;;;;16.10;4.05;;;;;;;;;;5088089;28;20020;-73
2021/08/29 13:22:07;;;;;;;15.02;4.30;;;;;;;;;;5106662;27;20175;-71
2021/08/29 13:24:38;;;;;;;14.07;3.58;;;;;;;;;;5109343;28;20020;-72
2021/08/29 13:27:15;;;;;;;16.77;4.38;;;;;;;;;;5111345;28;20036;-72
2021/08/29 13:29:42;;;;;;;13.52;3.83;;;;;;;;;;5111337;28;20131;-72
2021/08/29 13:32:09;;;;;;;14.07;3.28;;;;;;;;;;5079350;28;20035;-72
2021/08/29 13:34:35;;;;;;;9.82;3.40;;;;;;;;;;5111186;28;20106;-72
2021/08/29 13:37:02;;;;;;;16.40;4.60;;;;;;;;;;5110482;28;20028;-72
2021/08/29 13:39:32;;;;;;;23.83;4.20;;;;;;;;;;5109629;28;20102;-73
2021/08/29 13:42:18;;;;;;;13.73;4.53;;;;;;;;;;5111716;28;20016;-72
2021/08/29 13:44:50;;;;;;;17.05;3.88;;;;;;;;;;5106185;28;20039;-71
2021/08/29 13:47:18;;;;;;;17.00;3.40;;;;;;;;;;5092045;28;20122;-72
2021/08/29 13:49:44;;;;;;;15.15;3.55;;;;;;;;;;5109822;28;20047;-72
2021/08/29 13:52:10;;;;;;;17.73;3.90;;;;;;;;;;5107516;28;20034;-72
2021/08/29 13:54:36;;;;;;;19.42;4.22;;;;;;;;;;5118387;27;20052;-72
2021/08/29 13:57:02;;;;;;;16.30;4.57;;;;;;;;;;5091425;28;20028;-72
2021/08/29 13:59:28;;;;;;;25.77;4.28;;;;;;;;;;5090506;28;20098;-72
2021/08/29 14:01:54;;;;;;;21.77;4.60;;;;;;;;;;5107881;28;20019;-72
2021/08/29 14:04:20;;;;;;;19.67;3.85;;;;;;;;;;5106003;28;20032;-72
2021/08/29 14:06:46;;;;;;;21.52;4.90;;;;;;;;;;5107259;28;20027;-72
2021/08/29 14:09:12;;;;;;;17.92;3.85;;;;;;;;;;5110672;28;20035;-71
2021/08/29 14:11:38;;;;;;;12.32;4.03;;;;;;;;;;5108145;28;20019;-72
2021/08/29 14:14:04;;;;;;;20.02;5.15;;;;;;;;;;5092352;28;20027;-72
2021/08/29 14:16:30;;;;;;;22.20;4.90;;;;;;;;;;5100288;28;20012;-71
2021/08/29 14:18:56;;;;;;;14.00;4.45;;;;;;;;;;5101816;28;20077;-72
2021/08/29 14:21:22;;;;;;;17.40;4.20;;;;;;;;;;5079702;28;20059;-73
2021/08/29 14:23:51;;;;;;;24.42;4.03;;;;;;;;;;5106840;28;20046;-72
2021/08/29 14:26:17;;;;;;;21.33;4.40;;;;;;;;;;5095788;28;20028;-71
2021/08/29 14:28:43;;;;;;;24.33;4.32;;;;;;;;;;5075030;28;20017;-73
2021/08/29 14:31:09;;;;;;;15.48;4.70;;;;;;;;;;5086450;28;20020;-70